Time;durP1;ratioP1;P1;durP2;ratioP2;P2;SDS_P1;SDS_P2;PMS_P1;PMS_P2;Temp;Humidity;BMP_temperature;BMP_pressure;BME280_temperature;BME280_humidity;BME280_pressure;Samples;Min_cycle;Max_cycle;Signal;HPM_P1;HPM_P2
2022/04/24 00:01:30;;;;;;;24.27;16.90;;;;;;;;;;5033241;28;20889;-72
2022/04/24 00:03:56;;;;;;;24.40;17.70;;;;;;;;;;5033063;28;20803;-72
2022/04/24 00:06:22;;;;;;;20.90;15.80;;;;;;;;;;5032837;28;20473;-71
2022/04/24 00:08:49;;;;;;;25.03;17.00;;;;;;;;;;5033254;28;20532;-72
2022/04/24 00:11:15;;;;;;;23.27;15.80;;;;;;;;;;5031895;28;20744;-72
2022/04/24 00:13:42;;;;;;;23.83;16.47;;;;;;;;;;5033008;28;20796;-73
2022/04/24 00:16:08;;;;;;;23.17;16.00;;;;;;;;;;5032979;28;20538;-72
2022/04/24 00:18:35;;;;;;;24.43;16.30;;;;;;;;;;5033191;28;20441;-72
2022/04/24 00:21:01;;;;;;;21.57;15.83;;;;;;;;;;5033200;28;20395;-72
2022/04/24 00:23:27;;;;;;;21.40;15.73;;;;;;;;;;5032957;28;20406;-72
2022/04/24 00:25:53;;;;;;;17.97;14.40;;;;;;;;;;5033081;28;20415;-73
2022/04/24 00:28:19;;;;;;;23.10;15.33;;;;;;;;;;5033051;28;20418;-66
2022/04/24 00:30:45;;;;;;;24.70;16.07;;;;;;;;;;5032996;28;20494;-68
2022/04/24 00:33:11;;;;;;;20.23;15.10;;;;;;;;;;5031607;28;20517;-69
2022/04/24 00:35:37;;;;;;;20.03;14.83;;;;;;;;;;5031608;28;20461;-68
2022/04/24 00:38:03;;;;;;;22.10;14.90;;;;;;;;;;5033124;28;20423;-72
2022/04/24 00:40:29;;;;;;;25.77;16.73;;;;;;;;;;5032874;28;20406;-69
2022/04/24 00:42:55;;;;;;;21.20;15.20;;;;;;;;;;5032730;28;20477;-72
2022/04/24 00:45:21;;;;;;;22.93;15.47;;;;;;;;;;5032818;28;20501;-67
2022/04/24 00:47:48;;;;;;;23.73;16.23;;;;;;;;;;5032965;28;20447;-71
2022/04/24 00:50:14;;;;;;;26.63;15.10;;;;;;;;;;5032768;28;20918;-70
2022/04/24 00:52:40;;;;;;;21.60;15.10;;;;;;;;;;5032811;28;20417;-67
2022/04/24 00:55:07;;;;;;;21.07;15.47;;;;;;;;;;5032714;28;20418;-72
2022/04/24 00:57:33;;;;;;;19.83;15.03;;;;;;;;;;5032893;28;20410;-68
2022/04/24 00:59:59;;;;;;;21.37;15.37;;;;;;;;;;5032711;28;20402;-68
2022/04/24 01:02:25;;;;;;;20.47;14.60;;;;;;;;;;5032648;28;20402;-70
2022/04/24 01:04:51;;;;;;;20.10;15.07;;;;;;;;;;5032676;28;20470;-72
2022/04/24 01:07:18;;;;;;;24.33;16.77;;;;;;;;;;5032535;28;20496;-67
2022/04/24 01:09:43;;;;;;;21.30;14.30;;;;;;;;;;5032684;28;20468;-69
2022/04/24 01:12:10;;;;;;;19.80;14.30;;;;;;;;;;5032489;28;20410;-72
2022/04/24 01:14:36;;;;;;;20.53;13.57;;;;;;;;;;5032503;28;20438;-68
2022/04/24 01:17:03;;;;;;;23.10;15.20;;;;;;;;;;5033740;28;20421;-68
2022/04/24 01:19:29;;;;;;;20.40;14.10;;;;;;;;;;5036183;28;20414;-71
2022/04/24 01:21:55;;;;;;;20.50;14.67;;;;;;;;;;5036027;28;20415;-70
2022/04/24 01:24:23;;;;;;;20.60;14.97;;;;;;;;;;5035955;28;20479;-66
2022/04/24 01:26:49;;;;;;;19.63;14.10;;;;;;;;;;5036026;28;20415;-67
2022/04/24 01:29:16;;;;;;;23.30;15.47;;;;;;;;;;5035892;28;20415;-70
2022/04/24 01:31:44;;;;;;;21.00;14.20;;;;;;;;;;5035853;28;20453;-67
2022/04/24 01:34:10;;;;;;;19.17;14.70;;;;;;;;;;5034605;28;20426;-68
2022/04/24 01:36:36;;;;;;;21.10;15.00;;;;;;;;;;5035867;28;20406;-69
2022/04/24 01:39:04;;;;;;;19.30;13.57;;;;;;;;;;5034604;28;20533;-65
2022/04/24 01:41:31;;;;;;;22.97;14.53;;;;;;;;;;5035625;28;20964;-70
2022/04/24 01:43:57;;;;;;;18.70;13.50;;;;;;;;;;5035570;28;20968;-67
2022/04/24 01:46:23;;;;;;;19.30;13.77;;;;;;;;;;5035694;28;20423;-65
2022/04/24 01:48:49;;;;;;;16.73;12.27;;;;;;;;;;5035705;28;20453;-65
2022/04/24 01:51:16;;;;;;;18.33;13.60;;;;;;;;;;5035603;28;20897;-69
2022/04/24 01:53:43;;;;;;;22.10;15.00;;;;;;;;;;5035490;28;20485;-70
2022/04/24 01:56:09;;;;;;;18.10;12.87;;;;;;;;;;5035424;28;20506;-71
2022/04/24 01:58:35;;;;;;;19.80;13.30;;;;;;;;;;5035477;28;20734;-69
2022/04/24 02:01:01;;;;;;;18.37;13.07;;;;;;;;;;5035439;28;20418;-64
2022/04/24 02:03:28;;;;;;;22.70;13.53;;;;;;;;;;5035367;28;20407;-70
2022/04/24 02:05:54;;;;;;;21.50;14.73;;;;;;;;;;5035249;28;20501;-68
2022/04/24 02:08:20;;;;;;;21.03;15.20;;;;;;;;;;5035393;28;20406;-71
2022/04/24 02:10:47;;;;;;;19.00;13.70;;;;;;;;;;5035111;28;20422;-69
2022/04/24 02:13:13;;;;;;;23.60;13.80;;;;;;;;;;5035088;28;20469;-67
2022/04/24 02:15:39;;;;;;;21.20;13.90;;;;;;;;;;5035024;28;20414;-73
2022/04/24 02:18:05;;;;;;;21.57;14.00;;;;;;;;;;5033841;28;20422;-72
2022/04/24 02:20:31;;;;;;;19.47;14.40;;;;;;;;;;5035056;28;20521;-71
2022/04/24 02:22:58;;;;;;;22.07;15.47;;;;;;;;;;5034848;28;20426;-68
2022/04/24 02:25:27;;;;;;;21.87;13.97;;;;;;;;;;5034931;28;20536;-70
2022/04/24 02:27:54;;;;;;;17.17;12.70;;;;;;;;;;5034826;28;20414;-70
2022/04/24 02:30:24;;;;;;;20.57;13.87;;;;;;;;;;5034966;28;20501;-72
2022/04/24 02:32:51;;;;;;;22.13;14.30;;;;;;;;;;5034695;28;20802;-69
2022/04/24 02:35:17;;;;;;;24.70;15.27;;;;;;;;;;5034507;28;20921;-71
2022/04/24 02:37:44;;;;;;;21.20;13.40;;;;;;;;;;5034778;28;20399;-69
2022/04/24 02:40:10;;;;;;;22.93;14.53;;;;;;;;;;5034790;28;20421;-72
2022/04/24 02:42:40;;;;;;;19.97;14.30;;;;;;;;;;5034401;28;20524;-73
2022/04/24 02:45:06;;;;;;;20.73;14.17;;;;;;;;;;5034306;28;20508;-65
2022/04/24 02:47:33;;;;;;;21.67;14.00;;;;;;;;;;5034569;28;20501;-71
2022/04/24 02:49:59;;;;;;;20.10;13.67;;;;;;;;;;5034714;28;20752;-73
2022/04/24 02:52:25;;;;;;;19.23;14.30;;;;;;;;;;5034585;28;20414;-70
2022/04/24 02:54:51;;;;;;;21.40;14.93;;;;;;;;;;5034498;28;20398;-71
2022/04/24 02:57:17;;;;;;;21.87;14.70;;;;;;;;;;5033043;28;20480;-70
2022/04/24 02:59:44;;;;;;;18.43;13.47;;;;;;;;;;5034230;28;20414;-65
2022/04/24 03:02:12;;;;;;;22.50;15.03;;;;;;;;;;5034152;28;20410;-71
2022/04/24 03:04:38;;;;;;;21.77;14.77;;;;;;;;;;5032813;28;20564;-72
2022/04/24 03:07:04;;;;;;;21.07;15.23;;;;;;;;;;5033881;28;20562;-64
2022/04/24 03:09:30;;;;;;;20.33;14.60;;;;;;;;;;5034090;28;20422;-65
2022/04/24 03:11:56;;;;;;;18.80;13.67;;;;;;;;;;5034006;28;20516;-65
2022/04/24 03:14:22;;;;;;;23.47;16.13;;;;;;;;;;5033931;28;20429;-64
2022/04/24 03:16:48;;;;;;;21.80;14.60;;;;;;;;;;5033971;28;20430;-64
2022/04/24 03:19:14;;;;;;;20.87;14.80;;;;;;;;;;5033924;28;20399;-66
2022/04/24 03:21:40;;;;;;;19.53;14.33;;;;;;;;;;5033928;28;20757;-70
2022/04/24 03:24:06;;;;;;;17.70;13.33;;;;;;;;;;5033750;28;20485;-66
2022/04/24 03:26:32;;;;;;;22.47;15.50;;;;;;;;;;5033784;28;20513;-64
2022/04/24 03:28:58;;;;;;;18.10;13.63;;;;;;;;;;5033814;28;20945;-69
2022/04/24 03:31:25;;;;;;;23.30;14.50;;;;;;;;;;5033645;28;20417;-70
2022/04/24 03:33:54;;;;;;;20.80;14.10;;;;;;;;;;5033670;28;20509;-70
2022/04/24 03:36:20;;;;;;;22.30;15.73;;;;;;;;;;5033646;28;20438;-70
2022/04/24 03:38:46;;;;;;;20.00;14.30;;;;;;;;;;5033463;28;20422;-69
2022/04/24 03:41:12;;;;;;;21.77;14.37;;;;;;;;;;5033219;28;20399;-71
2022/04/24 03:43:38;;;;;;;23.60;14.83;;;;;;;;;;5033395;28;20517;-65
2022/04/24 03:46:07;;;;;;;19.70;13.97;;;;;;;;;;5033427;28;20897;-71
2022/04/24 03:48:34;;;;;;;19.03;14.87;;;;;;;;;;5033348;28;20851;-65
2022/04/24 03:51:01;;;;;;;18.47;13.40;;;;;;;;;;5033429;28;20415;-64
2022/04/24 03:53:27;;;;;;;22.43;15.40;;;;;;;;;;5033430;28;20412;-68
2022/04/24 03:55:53;;;;;;;21.53;15.30;;;;;;;;;;5033343;28;20963;-64
2022/04/24 03:58:19;;;;;;;23.50;15.13;;;;;;;;;;5033376;28;20779;-65
2022/04/24 04:00:46;;;;;;;23.97;16.00;;;;;;;;;;5033333;28;20415;-69
2022/04/24 04:03:12;;;;;;;20.90;15.03;;;;;;;;;;5033272;28;20488;-69
2022/04/24 04:05:38;;;;;;;20.50;13.80;;;;;;;;;;5033233;28;20465;-71
2022/04/24 04:08:04;;;;;;;22.43;14.73;;;;;;;;;;5033159;28;20458;-66
2022/04/24 04:10:30;;;;;;;23.60;16.47;;;;;;;;;;5033253;28;20411;-69
2022/04/24 04:12:56;;;;;;;20.07;13.27;;;;;;;;;;5033136;28;20901;-66
2022/04/24 04:15:22;;;;;;;22.03;15.10;;;;;;;;;;5033153;28;20485;-71
2022/04/24 04:17:49;;;;;;;20.90;14.70;;;;;;;;;;5031852;28;20405;-71
2022/04/24 04:20:15;;;;;;;21.30;14.40;;;;;;;;;;5033178;28;20908;-73
2022/04/24 04:22:48;;;;;;;24.33;15.23;;;;;;;;;;5033047;28;20406;-73
2022/04/24 04:25:14;;;;;;;22.67;14.67;;;;;;;;;;5033136;28;20474;-71
2022/04/24 04:27:40;;;;;;;23.87;15.27;;;;;;;;;;5033112;28;20473;-74
2022/04/24 04:30:07;;;;;;;23.30;15.30;;;;;;;;;;5033064;28;20414;-71
2022/04/24 04:32:34;;;;;;;23.93;15.40;;;;;;;;;;5033069;28;20445;-64
2022/04/24 04:35:00;;;;;;;24.80;16.80;;;;;;;;;;5033025;28;20757;-70
2022/04/24 04:37:26;;;;;;;24.27;15.33;;;;;;;;;;5033001;28;20406;-72
2022/04/24 04:39:52;;;;;;;25.47;16.57;;;;;;;;;;5031763;28;20430;-68
2022/04/24 04:42:18;;;;;;;26.37;15.70;;;;;;;;;;5032777;28;20737;-64
2022/04/24 04:44:45;;;;;;;27.50;15.40;;;;;;;;;;5032822;28;20556;-64
2022/04/24 04:47:11;;;;;;;15.50;10.90;;;;;;;;;;5032869;28;20402;-65
2022/04/24 04:49:37;;;;;;;11.67;7.37;;;;;;;;;;5032822;28;20422;-71
2022/04/24 04:52:03;;;;;;;7.30;5.57;;;;;;;;;;5034234;28;20434;-65
2022/04/24 04:54:29;;;;;;;6.30;3.97;;;;;;;;;;5036560;28;20527;-64
2022/04/24 04:56:55;;;;;;;2.50;2.30;;;;;;;;;;5036618;28;20501;-65
2022/04/24 04:59:21;;;;;;;2.83;2.07;;;;;;;;;;5036530;28;20889;-64
2022/04/24 05:01:47;;;;;;;2.10;1.60;;;;;;;;;;5036512;28;20413;-65
2022/04/24 05:04:13;;;;;;;1.37;1.13;;;;;;;;;;5036450;28;20457;-75
2022/04/24 05:06:39;;;;;;;1.63;1.30;;;;;;;;;;5036016;28;20519;-65
2022/04/24 05:09:05;;;;;;;1.00;0.90;;;;;;;;;;5036413;28;20418;-64
2022/04/24 05:11:31;;;;;;;2.53;0.87;;;;;;;;;;5036176;28;20779;-68
2022/04/24 05:13:58;;;;;;;0.70;0.63;;;;;;;;;;5036148;28;20525;-71
2022/04/24 05:16:24;;;;;;;0.80;0.70;;;;;;;;;;5036334;28;20493;-70
2022/04/24 05:18:50;;;;;;;2.73;0.80;;;;;;;;;;5036141;28;20828;-71
2022/04/24 05:21:19;;;;;;;0.60;0.50;;;;;;;;;;5036168;28;20398;-72
2022/04/24 05:23:46;;;;;;;1.07;0.60;;;;;;;;;;5036193;28;20752;-75
2022/04/24 05:26:13;;;;;;;0.97;0.80;;;;;;;;;;5035915;28;20416;-78
2022/04/24 05:28:39;;;;;;;0.83;0.60;;;;;;;;;;5035997;28;20544;-65
2022/04/24 05:31:05;;;;;;;0.70;0.60;;;;;;;;;;5035804;28;20505;-65
2022/04/24 05:33:32;;;;;;;2.80;0.70;;;;;;;;;;5036076;28;20409;-74
2022/04/24 05:35:58;;;;;;;0.70;0.60;;;;;;;;;;5035966;28;20433;-66
2022/04/24 05:38:24;;;;;;;1.03;0.50;;;;;;;;;;5035897;28;21055;-67
2022/04/24 05:40:50;;;;;;;0.57;0.50;;;;;;;;;;5035837;28;20410;-66
2022/04/24 05:43:16;;;;;;;1.47;0.67;;;;;;;;;;5035662;28;20765;-68
2022/04/24 05:45:42;;;;;;;0.60;0.60;;;;;;;;;;5035562;28;20866;-67
2022/04/24 05:48:08;;;;;;;1.43;0.50;;;;;;;;;;5035579;28;20430;-66
2022/04/24 05:50:34;;;;;;;0.60;0.50;;;;;;;;;;5035721;28;20410;-67
2022/04/24 05:53:02;;;;;;;2.10;0.57;;;;;;;;;;5035634;28;20403;-68
2022/04/24 05:55:28;;;;;;;1.53;0.60;;;;;;;;;;5035498;28;20434;-67
2022/04/24 05:57:54;;;;;;;0.67;0.47;;;;;;;;;;5035385;28;20410;-68
2022/04/24 06:00:21;;;;;;;0.60;0.47;;;;;;;;;;5035291;28;20437;-68
2022/04/24 06:02:47;;;;;;;0.60;0.50;;;;;;;;;;5034803;28;20446;-68
2022/04/24 06:05:14;;;;;;;0.60;0.40;;;;;;;;;;5035432;28;20465;-75
2022/04/24 06:07:41;;;;;;;0.60;0.50;;;;;;;;;;5035119;28;20467;-65
2022/04/24 06:10:07;;;;;;;0.70;0.60;;;;;;;;;;5035311;28;20442;-67
2022/04/24 06:12:43;;;;;;;0.80;0.50;;;;;;;;;;5035132;28;20485;-67
2022/04/24 06:15:15;;;;;;;0.60;0.50;;;;;;;;;;5035178;28;20415;-68
2022/04/24 06:17:41;;;;;;;0.50;0.43;;;;;;;;;;5035219;28;20396;-68
2022/04/24 06:20:07;;;;;;;0.60;0.47;;;;;;;;;;5033782;28;20473;-72
2022/04/24 06:22:41;;;;;;;0.50;0.40;;;;;;;;;;5035179;28;20399;-73
2022/04/24 06:25:08;;;;;;;1.50;0.50;;;;;;;;;;5034764;28;20569;-72
2022/04/24 06:27:34;;;;;;;0.60;0.50;;;;;;;;;;5035182;28;20402;-74
2022/04/24 06:30:01;;;;;;;0.50;0.40;;;;;;;;;;5033743;28;20401;-75
2022/04/24 06:32:32;;;;;;;0.70;0.70;;;;;;;;;;5033502;28;20882;-69
2022/04/24 06:34:58;;;;;;;0.63;0.53;;;;;;;;;;5034780;28;20393;-71
2022/04/24 06:37:24;;;;;;;0.50;0.40;;;;;;;;;;5034791;28;20431;-69
2022/04/24 06:39:50;;;;;;;0.97;0.60;;;;;;;;;;5034815;28;20418;-70
2022/04/24 06:42:16;;;;;;;0.70;0.60;;;;;;;;;;5034443;28;20458;-72
2022/04/24 06:44:42;;;;;;;0.90;0.60;;;;;;;;;;5034421;28;20473;-71
2022/04/24 06:47:08;;;;;;;0.57;0.43;;;;;;;;;;5034544;28;20497;-67
2022/04/24 06:49:34;;;;;;;0.60;0.60;;;;;;;;;;5034452;28;20502;-72
2022/04/24 06:52:00;;;;;;;0.60;0.50;;;;;;;;;;5034486;28;20399;-72
2022/04/24 06:54:26;;;;;;;0.50;0.40;;;;;;;;;;5034225;28;20418;-71
2022/04/24 06:56:52;;;;;;;0.70;0.70;;;;;;;;;;5034299;28;20498;-72
2022/04/24 06:59:18;;;;;;;0.60;0.50;;;;;;;;;;5034215;28;20498;-72
2022/04/24 07:01:44;;;;;;;0.60;0.53;;;;;;;;;;5034194;28;20465;-72
2022/04/24 07:04:10;;;;;;;0.57;0.40;;;;;;;;;;5034070;28;20462;-69
2022/04/24 07:06:36;;;;;;;0.50;0.40;;;;;;;;;;5033938;28;20502;-71
2022/04/24 07:09:02;;;;;;;0.60;0.60;;;;;;;;;;5032922;28;20402;-71
2022/04/24 07:11:28;;;;;;;0.70;0.50;;;;;;;;;;5034097;28;20414;-70
2022/04/24 07:13:54;;;;;;;1.00;0.60;;;;;;;;;;5033309;28;20433;-69
2022/04/24 07:16:20;;;;;;;0.90;0.50;;;;;;;;;;5033876;28;20403;-71
2022/04/24 07:18:46;;;;;;;0.67;0.50;;;;;;;;;;5033918;28;20405;-67
2022/04/24 07:21:12;;;;;;;0.70;0.50;;;;;;;;;;5033862;28;20836;-72
2022/04/24 07:23:38;;;;;;;1.33;0.60;;;;;;;;;;5033890;28;20494;-71
2022/04/24 07:26:04;;;;;;;0.80;0.60;;;;;;;;;;5033662;28;20491;-71
2022/04/24 07:28:31;;;;;;;0.70;0.50;;;;;;;;;;5033733;28;20402;-73
2022/04/24 07:30:57;;;;;;;0.60;0.50;;;;;;;;;;5033706;28;20421;-71
2022/04/24 07:33:23;;;;;;;0.60;0.50;;;;;;;;;;5033724;28;20403;-70
2022/04/24 07:35:49;;;;;;;0.60;0.57;;;;;;;;;;5033723;28;20406;-72
2022/04/24 07:38:15;;;;;;;1.10;0.60;;;;;;;;;;5033701;28;20402;-71
2022/04/24 07:40:42;;;;;;;0.60;0.50;;;;;;;;;;5033565;28;20406;-72
2022/04/24 07:43:08;;;;;;;0.70;0.50;;;;;;;;;;5033625;28;20510;-71
2022/04/24 07:45:36;;;;;;;0.57;0.50;;;;;;;;;;5033392;28;20462;-69
2022/04/24 07:48:02;;;;;;;1.43;0.60;;;;;;;;;;5033570;28;20413;-70
2022/04/24 07:50:29;;;;;;;0.70;0.60;;;;;;;;;;5033344;28;20750;-71
2022/04/24 07:52:56;;;;;;;0.77;0.60;;;;;;;;;;5033475;28;20407;-69
2022/04/24 07:55:23;;;;;;;0.60;0.50;;;;;;;;;;5033424;28;20411;-71
2022/04/24 07:57:50;;;;;;;1.07;0.90;;;;;;;;;;5033334;28;20878;-69
2022/04/24 08:00:17;;;;;;;0.60;0.50;;;;;;;;;;5033390;28;20411;-72
2022/04/24 08:02:51;;;;;;;0.60;0.60;;;;;;;;;;5033226;28;20411;-71
2022/04/24 08:05:27;;;;;;;0.60;0.50;;;;;;;;;;5033074;28;21042;-71
2022/04/24 08:07:54;;;;;;;0.70;0.70;;;;;;;;;;5033023;28;20460;-71
2022/04/24 08:10:21;;;;;;;0.70;0.60;;;;;;;;;;5032000;28;20821;-71
2022/04/24 08:12:48;;;;;;;1.53;0.70;;;;;;;;;;5033058;28;20426;-72
2022/04/24 08:15:14;;;;;;;0.73;0.73;;;;;;;;;;5033195;28;20973;-72
2022/04/24 08:17:40;;;;;;;2.83;0.60;;;;;;;;;;5033196;28;20490;-72
2022/04/24 08:20:07;;;;;;;0.90;0.67;;;;;;;;;;5033140;28;20422;-73
2022/04/24 08:22:40;;;;;;;0.90;0.80;;;;;;;;;;5033078;28;20411;-73
2022/04/24 08:25:07;;;;;;;0.60;0.50;;;;;;;;;;5032916;28;20509;-72
2022/04/24 08:27:33;;;;;;;0.67;0.60;;;;;;;;;;5037128;28;20442;-72
2022/04/24 08:30:00;;;;;;;1.00;0.67;;;;;;;;;;5036969;28;20493;-70
2022/04/24 08:32:26;;;;;;;1.53;0.93;;;;;;;;;;5037117;28;20424;-73
2022/04/24 08:34:52;;;;;;;0.83;0.80;;;;;;;;;;5037109;28;20386;-72
2022/04/24 08:37:18;;;;;;;1.30;0.80;;;;;;;;;;5036977;28;20406;-68
2022/04/24 08:39:44;;;;;;;1.60;1.00;;;;;;;;;;5036923;28;20481;-73
2022/04/24 08:42:10;;;;;;;1.47;1.30;;;;;;;;;;5036849;28;20434;-72
2022/04/24 08:44:37;;;;;;;1.13;1.03;;;;;;;;;;5036754;28;20964;-70
2022/04/24 08:47:03;;;;;;;1.20;1.10;;;;;;;;;;5036689;28;20417;-71
2022/04/24 08:49:31;;;;;;;2.33;0.93;;;;;;;;;;5036677;28;20429;-72
2022/04/24 08:51:59;;;;;;;2.73;0.93;;;;;;;;;;5036538;28;20398;-71
2022/04/24 08:54:27;;;;;;;1.47;1.30;;;;;;;;;;5036443;28;20924;-69
2022/04/24 08:56:56;;;;;;;2.73;0.60;;;;;;;;;;5036523;28;20410;-71
2022/04/24 08:59:22;;;;;;;0.80;0.80;;;;;;;;;;5036482;28;20406;-70
2022/04/24 09:01:50;;;;;;;0.70;0.70;;;;;;;;;;5036313;28;20410;-72
2022/04/24 09:04:16;;;;;;;2.40;1.10;;;;;;;;;;5036317;28;20461;-74
2022/04/24 09:06:42;;;;;;;0.80;0.80;;;;;;;;;;5036075;28;20512;-72
2022/04/24 09:09:09;;;;;;;1.17;0.70;;;;;;;;;;5036377;28;20410;-72
2022/04/24 09:11:36;;;;;;;1.23;1.13;;;;;;;;;;5036060;28;20416;-71
2022/04/24 09:14:15;;;;;;;1.33;0.80;;;;;;;;;;5036030;28;20473;-72
2022/04/24 09:16:50;;;;;;;1.90;0.97;;;;;;;;;;5036293;28;20493;-72
2022/04/24 09:19:16;;;;;;;1.20;0.80;;;;;;;;;;5036247;28;21004;-72
2022/04/24 09:21:43;;;;;;;1.37;0.80;;;;;;;;;;5036176;28;20399;-71
2022/04/24 09:24:09;;;;;;;1.30;1.20;;;;;;;;;;5036067;28;20943;-72
2022/04/24 09:26:35;;;;;;;1.50;1.00;;;;;;;;;;5036037;28;20429;-71
2022/04/24 09:29:01;;;;;;;1.27;1.03;;;;;;;;;;5035910;28;20453;-71
2022/04/24 09:31:29;;;;;;;2.57;1.07;;;;;;;;;;5035998;28;20469;-70
2022/04/24 09:33:55;;;;;;;3.03;0.80;;;;;;;;;;5035999;28;20449;-71
2022/04/24 09:36:25;;;;;;;2.50;0.87;;;;;;;;;;5035702;28;20755;-72
2022/04/24 09:38:51;;;;;;;1.00;0.90;;;;;;;;;;5033648;28;20443;-69
2022/04/24 09:41:18;;;;;;;1.43;0.93;;;;;;;;;;5035547;28;20821;-72
2022/04/24 09:43:44;;;;;;;0.90;0.90;;;;;;;;;;5035563;28;20427;-71
2022/04/24 09:46:10;;;;;;;1.30;1.03;;;;;;;;;;5035575;28;20465;-70
2022/04/24 09:48:36;;;;;;;3.90;1.43;;;;;;;;;;5035534;28;20399;-71
2022/04/24 09:51:03;;;;;;;1.70;1.20;;;;;;;;;;5034216;28;20758;-70
2022/04/24 09:53:29;;;;;;;1.47;1.20;;;;;;;;;;5034299;28;20501;-71
2022/04/24 09:55:56;;;;;;;2.83;1.50;;;;;;;;;;5035335;28;20517;-71
2022/04/24 09:58:22;;;;;;;3.80;1.80;;;;;;;;;;5035300;28;20418;-71
2022/04/24 10:00:49;;;;;;;1.27;1.07;;;;;;;;;;5035223;28;20415;-71
2022/04/24 10:03:16;;;;;;;2.20;1.27;;;;;;;;;;5035359;28;20443;-70
2022/04/24 10:05:47;;;;;;;1.30;1.20;;;;;;;;;;5035146;28;20466;-71
2022/04/24 10:08:13;;;;;;;4.93;1.30;;;;;;;;;;5035248;28;20588;-72
2022/04/24 10:10:39;;;;;;;1.53;1.17;;;;;;;;;;5035164;28;20411;-72
2022/04/24 10:13:07;;;;;;;2.67;1.40;;;;;;;;;;5035164;28;21019;-71
2022/04/24 10:15:34;;;;;;;1.30;1.20;;;;;;;;;;5035057;28;20759;-71
2022/04/24 10:18:19;;;;;;;1.57;1.47;;;;;;;;;;5035047;28;20494;-70
2022/04/24 10:20:57;;;;;;;1.17;1.07;;;;;;;;;;5035113;28;20460;-72
2022/04/24 10:23:30;;;;;;;2.80;1.43;;;;;;;;;;5035137;28;20417;-72
2022/04/24 10:25:56;;;;;;;1.20;1.03;;;;;;;;;;5034736;28;20470;-70
2022/04/24 10:28:22;;;;;;;2.10;1.90;;;;;;;;;;5033578;28;20442;-71
2022/04/24 10:31:02;;;;;;;1.20;1.10;;;;;;;;;;5033664;28;20902;-71
2022/04/24 10:33:29;;;;;;;2.30;1.10;;;;;;;;;;5034844;28;20417;-68
2022/04/24 10:36:00;;;;;;;2.00;1.47;;;;;;;;;;5034657;28;20449;-72
2022/04/24 10:38:27;;;;;;;1.43;1.30;;;;;;;;;;5034868;28;20411;-72
2022/04/24 10:40:57;;;;;;;1.50;1.13;;;;;;;;;;5034614;28;20399;-72
2022/04/24 10:43:24;;;;;;;2.37;1.60;;;;;;;;;;5034540;28;20553;-72
2022/04/24 10:45:50;;;;;;;1.30;1.20;;;;;;;;;;5034461;28;20492;-71
2022/04/24 10:48:17;;;;;;;1.37;1.27;;;;;;;;;;5034538;28;20438;-72
2022/04/24 10:50:50;;;;;;;1.40;1.30;;;;;;;;;;5034399;28;20771;-70
2022/04/24 10:53:16;;;;;;;1.57;1.47;;;;;;;;;;5034413;28;20430;-70
2022/04/24 10:55:43;;;;;;;1.90;1.27;;;;;;;;;;5034327;28;20407;-71
2022/04/24 10:58:09;;;;;;;1.27;1.17;;;;;;;;;;5034329;28;20486;-71
2022/04/24 11:00:37;;;;;;;2.00;1.80;;;;;;;;;;5034120;28;20419;-71
2022/04/24 11:03:13;;;;;;;2.13;1.50;;;;;;;;;;5034162;28;20890;-70
2022/04/24 11:05:41;;;;;;;1.87;1.73;;;;;;;;;;5033848;28;20536;-71
2022/04/24 11:08:08;;;;;;;1.50;1.40;;;;;;;;;;5034015;28;20538;-71
2022/04/24 11:10:41;;;;;;;1.77;1.30;;;;;;;;;;5033898;28;20415;-72
2022/04/24 11:13:16;;;;;;;1.40;1.30;;;;;;;;;;5032541;28;20468;-72
2022/04/24 11:15:44;;;;;;;1.90;1.47;;;;;;;;;;5033841;28;20501;-71
2022/04/24 11:18:24;;;;;;;2.20;1.40;;;;;;;;;;5032601;28;20418;-72
2022/04/24 11:20:54;;;;;;;3.37;2.10;;;;;;;;;;5033801;28;20409;-71
2022/04/24 11:23:20;;;;;;;2.10;1.50;;;;;;;;;;5033915;28;20476;-71
2022/04/24 11:25:47;;;;;;;2.90;1.60;;;;;;;;;;5032562;28;20477;-71
2022/04/24 11:28:15;;;;;;;1.40;1.20;;;;;;;;;;5032569;28;20399;-71
2022/04/24 11:30:41;;;;;;;2.00;1.90;;;;;;;;;;5033791;28;20418;-72
2022/04/24 11:33:08;;;;;;;4.13;2.77;;;;;;;;;;5033637;28;20987;-71
2022/04/24 11:35:38;;;;;;;1.90;1.80;;;;;;;;;;5033762;28;20437;-71
2022/04/24 11:38:05;;;;;;;2.03;1.13;;;;;;;;;;5033625;28;20402;-71
2022/04/24 11:40:33;;;;;;;2.60;2.27;;;;;;;;;;5033702;28;20933;-70
2022/04/24 11:43:06;;;;;;;1.73;1.63;;;;;;;;;;5033431;28;20418;-72
2022/04/24 11:51:18;;;;;;;1.77;1.23;;;;;;;;;;5033653;28;20461;-69
2022/04/24 11:53:44;;;;;;;1.57;1.30;;;;;;;;;;5033431;28;20402;-72
2022/04/24 11:56:11;;;;;;;1.70;1.40;;;;;;;;;;5033409;28;20456;-70
2022/04/24 11:58:40;;;;;;;1.60;1.50;;;;;;;;;;5033351;28;20411;-71
2022/04/24 12:01:13;;;;;;;1.77;1.53;;;;;;;;;;5032760;28;20402;-70
2022/04/24 12:03:39;;;;;;;1.60;1.50;;;;;;;;;;5031983;28;20494;-69
2022/04/24 12:06:06;;;;;;;2.37;1.50;;;;;;;;;;5032837;28;20564;-70
2022/04/24 12:08:49;;;;;;;1.40;1.30;;;;;;;;;;5033392;28;20417;-70
2022/04/24 12:11:28;;;;;;;4.80;1.80;;;;;;;;;;5033215;28;20493;-71
2022/04/24 12:14:11;;;;;;;2.23;1.30;;;;;;;;;;5033026;28;20505;-71
2022/04/24 12:16:38;;;;;;;1.20;0.97;;;;;;;;;;5033152;28;20455;-70
2022/04/24 12:19:04;;;;;;;1.33;1.00;;;;;;;;;;5033142;28;20481;-70
2022/04/24 12:21:31;;;;;;;2.37;1.67;;;;;;;;;;5032944;28;20464;-71
2022/04/24 12:23:58;;;;;;;1.30;1.20;;;;;;;;;;5032827;28;20415;-70
2022/04/24 12:26:24;;;;;;;1.43;1.33;;;;;;;;;;5032807;28;20414;-71
2022/04/24 12:28:50;;;;;;;1.03;1.03;;;;;;;;;;5033032;28;20399;-70
2022/04/24 12:31:21;;;;;;;1.57;1.47;;;;;;;;;;5032890;28;20409;-71
2022/04/24 12:33:48;;;;;;;1.07;0.93;;;;;;;;;;5031745;28;20414;-71
2022/04/24 12:36:14;;;;;;;1.00;1.00;;;;;;;;;;5032903;28;20790;-70
2022/04/24 12:38:56;;;;;;;0.97;0.87;;;;;;;;;;5032990;28;20407;-71
2022/04/24 12:41:24;;;;;;;1.30;1.20;;;;;;;;;;5032840;28;20456;-70
2022/04/24 12:43:50;;;;;;;1.20;1.10;;;;;;;;;;5032933;28;20433;-71
2022/04/24 12:46:16;;;;;;;1.00;1.00;;;;;;;;;;5032737;28;20457;-71
2022/04/24 12:48:50;;;;;;;1.93;1.03;;;;;;;;;;5032862;28;20399;-70
2022/04/24 12:51:16;;;;;;;2.53;0.90;;;;;;;;;;5032738;28;20414;-69
2022/04/24 12:53:42;;;;;;;1.20;1.10;;;;;;;;;;5032720;28;20440;-69
2022/04/24 12:56:08;;;;;;;1.10;1.00;;;;;;;;;;5032657;28;20492;-67
2022/04/24 12:58:34;;;;;;;1.37;0.80;;;;;;;;;;5032651;28;20978;-69
2022/04/24 13:01:01;;;;;;;0.80;0.80;;;;;;;;;;5032635;28;20422;-68
2022/04/24 13:03:27;;;;;;;1.00;0.90;;;;;;;;;;5032708;28;20453;-71
2022/04/24 13:05:53;;;;;;;0.90;0.90;;;;;;;;;;5032478;28;20469;-70
2022/04/24 13:08:19;;;;;;;0.80;0.80;;;;;;;;;;5032585;28;20454;-71
2022/04/24 13:10:45;;;;;;;3.13;0.80;;;;;;;;;;5032619;28;20513;-71
2022/04/24 13:13:11;;;;;;;1.60;0.77;;;;;;;;;;5032937;28;20788;-71
2022/04/24 13:15:37;;;;;;;0.70;0.70;;;;;;;;;;5036323;28;20477;-70
2022/04/24 13:18:08;;;;;;;1.10;1.00;;;;;;;;;;5036233;28;20406;-70
2022/04/24 13:20:44;;;;;;;0.80;0.80;;;;;;;;;;5036182;28;20794;-70
2022/04/24 13:23:11;;;;;;;1.07;1.00;;;;;;;;;;5036218;28;20412;-72
2022/04/24 13:25:38;;;;;;;0.80;0.80;;;;;;;;;;5036038;28;20458;-71
2022/04/24 13:28:05;;;;;;;0.80;0.80;;;;;;;;;;5036106;28;20456;-73
2022/04/24 13:30:31;;;;;;;1.83;0.90;;;;;;;;;;5035918;28;20468;-70
2022/04/24 13:32:57;;;;;;;0.80;0.73;;;;;;;;;;5035936;28;20410;-70
2022/04/24 13:35:24;;;;;;;1.27;0.80;;;;;;;;;;5035966;28;20789;-71
2022/04/24 13:40:35;;;;;;;0.70;0.60;;;;;;;;;;5036138;28;20448;-71
2022/04/24 13:43:02;;;;;;;0.70;0.67;;;;;;;;;;5035759;28;20889;-71
2022/04/24 13:45:30;;;;;;;1.60;0.90;;;;;;;;;;5035415;28;20952;-69
2022/04/24 13:47:56;;;;;;;1.37;0.70;;;;;;;;;;5035673;28;20473;-70
2022/04/24 13:50:22;;;;;;;1.03;0.83;;;;;;;;;;5035600;28;20445;-72
2022/04/24 13:52:49;;;;;;;1.83;0.90;;;;;;;;;;5035659;28;20959;-71
2022/04/24 13:55:15;;;;;;;0.97;0.97;;;;;;;;;;5035455;28;20449;-71
2022/04/24 13:57:42;;;;;;;0.90;0.70;;;;;;;;;;5035541;28;20407;-71
2022/04/24 14:00:11;;;;;;;1.30;0.70;;;;;;;;;;5035449;28;20407;-71
2022/04/24 14:02:38;;;;;;;1.50;0.70;;;;;;;;;;5035478;28;20480;-71
2022/04/24 14:05:04;;;;;;;0.70;0.70;;;;;;;;;;5033923;28;20482;-71
2022/04/24 14:07:31;;;;;;;1.20;1.10;;;;;;;;;;5035064;28;20458;-69
2022/04/24 14:09:57;;;;;;;1.90;1.00;;;;;;;;;;5035206;28;20490;-70
2022/04/24 14:12:23;;;;;;;3.37;0.90;;;;;;;;;;5035026;28;20846;-71
2022/04/24 14:14:49;;;;;;;1.57;1.00;;;;;;;;;;5035063;28;20410;-71
2022/04/24 14:17:15;;;;;;;0.60;0.60;;;;;;;;;;5035095;28;20415;-71
2022/04/24 14:19:42;;;;;;;0.83;0.83;;;;;;;;;;5035133;28;20468;-71
2022/04/24 14:22:08;;;;;;;0.80;0.80;;;;;;;;;;5035113;28;20406;-69
2022/04/24 14:24:34;;;;;;;2.00;0.83;;;;;;;;;;5034526;28;20450;-72
2022/04/24 14:27:00;;;;;;;1.00;0.83;;;;;;;;;;5034865;28;20443;-71
2022/04/24 14:29:26;;;;;;;1.13;1.07;;;;;;;;;;5034917;28;20470;-71
2022/04/24 14:31:52;;;;;;;1.13;1.00;;;;;;;;;;5034909;28;20442;-71
2022/04/24 14:34:19;;;;;;;1.30;1.20;;;;;;;;;;5034785;28;20881;-71
2022/04/24 14:36:45;;;;;;;0.70;0.70;;;;;;;;;;5034786;28;20778;-71
2022/04/24 14:39:11;;;;;;;0.97;0.93;;;;;;;;;;5034757;28;20410;-72
2022/04/24 14:41:38;;;;;;;1.30;1.10;;;;;;;;;;5034711;28;20476;-70